Extreme weather reports worldwide

High winds

Station
 
Location
 
Name
 
Wind
Knots
Gust
Knots
Vis
SM
Temp/Dew
C
Baro
inHg
METAR
 
KMWN 54 61 90 2/1 KMWN 262156Z 30054G61KT 90SM FEW000 SCT003 BKN050 02/01 RMK INTMT BCFG
ENOA NO Oseberg A Platform 45 5.59 15/13 29.73 ENOA 262220Z 16045KT 9000 OVC010 15/13 Q1007 W///S5
FBU ENFB Oslo, NO Oslo, Fornebu Airport 43 14/13 29.70 ENFB 262220Z AUTO 16043KT 6000NDV OVC005/// 14/13 Q1006 W///S5
ENGC 43 3.73 14/13 29.70 ENGC 262220Z 18043KT 6000 OVC005 14/13 Q1006 W12/S5
ENSE 42 14/13 29.70 ENSE 262220Z AUTO 17042KT 6000NDV OVC005/// 14/13 Q1006 W///S5

Station
 
Location
 
Name
 
Wind
Knots
Gust
Knots
Vis
SM
Temp/Dew
C
Baro
inHg
METAR
 
ENSF 41 15/13 29.70 ENSF 262220Z AUTO 17041KT 5000NDV BKN005/// 15/13 Q1006 W///S5
CWRU 38 46 12/12 CWRU 262200Z AUTO 11038G46KT 13/12 RMK AO1 8034 PK WND 12046/2156 SLP974 T01250124 50004
ENQR 38 14/13 29.70 ENQR 262220Z AUTO 16038KT 3800NDV BR OVC005/// 14/13 Q1006 W///S5
ENHM 35 14/14 29.76 ENHM 262220Z AUTO 14035KT 3900NDV BR SCT005/// OVC007/// 14/14 Q1008 W14/S/
ENSL NO Sleipner A Platform 33 15/14 29.70 ENSL 262220Z AUTO 15033KT 3300NDV HZ BKN006/// 15/14 Q1006 W12/S4
CWGT 32 38 13/11 CWGT 262200Z AUTO 10032G38KT 14/12 RMK AO1 PK WND 11038/2200 SLP049 T01350118 58021
CWLP 32 44 13/9 CWLP 262200Z AUTO 11032G44KT 13/09 RMK AO1 PK WND 11044/2156 SLP992 T01310094 58020
ENQA NO Troll A Platform 32 15/13 29.79 ENQA 262220Z AUTO 16032KT 9999NDV OVC023/// 15/13 Q1009 W///S/
CTB KCTB Cut Bank, US Cut Bank International Airport 31 39 10 26/-1 29.74 KCTB 262156Z AUTO 24031G39KT 10SM CLR 26/M01 A2974 RMK AO2 PK WND 24039/2156 SLP039 T02611011
ENUN 31 13/11 29.79 ENUN 262220Z AUTO 18031KT 9999NDV FEW012/// OVC063/// 13/11 Q1009 W11/S/
CWRZ 30 36 14/13 CWRZ 262200Z AUTO 11030G36KT 14/14 RMK AO1 PK WND 10037/2116 SLP998 T01400138 56059
TNM SCRM Isla Rey Jorge, AQ Teniente Rodolfo Marsh Martin Base 30 0.5 0/0 29.11 SCRM 262200Z 03030KT 0800 -RASN FG OVC003 00/00 Q0986 NOSIG
ENQC NO Troll C Platform 30 15/12 29.79 ENQC 262220Z AUTO 15030KT 9999NDV OVC023/// 15/12 Q1009 W///S/
CWRO 28 35 11/ CWRO 262200Z AUTO 13028G35KT 11/ RMK AO1 PK WND 13036/2125 SLP944 T0114 58019
UBA SBUR Uberaba, BR Mário de Almeida Franco Airport 28 0.56 / 30.18 SBUR 262200Z 18028KT 0900 +TSRA BKN009 SCT023 BKN030CB 16/// Q1022
EGOP 27 6.21 17/16 29.65 EGOP 262150Z AUTO 19027KT 9999 // FEW013/// SCT070/// 17/16 Q1004
CWGB 26 31 13/ CWGB 262200Z AUTO 11026G31KT 13/ RMK AO1 PK WND 11031/2159 SLP067 T0132 58017
CXBR 26 24/0 CXBR 262200Z AUTO 25026KT 25/M00 RMK AO1 PK WND 25038/2150 T02471003
CWNE 25 36 17/17 CWNE 262200Z AUTO 12025G36KT 18/17 RMK AO1 6041 PK WND 13040/2117 SLP978 T01770170 50079
YRB CYRB Resolute Bay, CA Resolute Bay Airport 25 31 12 -2/-3 30.04 CYRB 262200Z 10025G31KT 12SM FEW030 OVC080 M02/M03 A3004 RMK SC1AC8 SC TR SLP180
WPC CZPC Pincher Creek, CA Pincher Creek Airport 25 32 9 23/1 29.71 CZPC 262200Z AUTO 26025G32KT 9SM CLR 23/01 A2971 RMK SLP043 DENSITY ALT 6000FT
ICT KICT Wichita, US Wichita Eisenhower National Airport 24 36 10 33/6 29.84 KICT 262153Z COR 21024G36KT 10SM CLR 34/06 A2984 RMK AO2 PK WND 19036/2151 SLP090 T03390061
HYS KHYS Hays, US Hays Regional Airport 24 29 10 36/2 29.77 KHYS 262156Z AUTO 20024G29KT 10SM CLR 36/02 A2977 RMK AO2 PK WND 21029/2149 SLP063 T03610022 $
CWHP 24 29 13/12 CWHP 262200Z AUTO 14024G29KT 13/12 RMK AO1 3PAST HR 8028 PK WND 14029/2157 SLP071 P0001 T01330124 50005
YTE CYTE Cape Dorset, CA Cape Dorset Airport 24 31 7 2/2 29.80 CYTE 262200Z AUTO 11024G31KT 7SM OVC004 02/02 A2980 RMK SLP097
SBLB Macaé, BR Plataforma P-25 Helipad 24 6.21 23/19 30.06 SBLB 262200Z AUTO 05024KT 9999 FEW018 23/19 Q1018 W///S4
ENLE 24 6.21 16/15 29.79 ENLE 262220Z 15024KT 9999 SCT009 BKN020 16/15 Q1009 W16/S4
ENNE 24 13/10 29.85 ENNE 262220Z AUTO 15024KT 9999NDV BKN064/// 13/10 Q1011 W///S5
ENUG 24 10/10 29.79 ENUG 262220Z AUTO 25024KT 1700NDV -RA BR OVC004/// 10/10 Q1009 W///S4
ENWV 24 16/15 29.82 ENWV 262220Z AUTO 16024KT 3500NDV BR NCD 16/15 Q1010 W///S4
KEF BIKF Reykjavík, IS Keflavik International Airport 24 34 6.21 5/2 29.32 BIKF 262230Z 03024G34KT 9999 -RA FEW012 OVC022 05/02 Q0993
KAVK Alva, US Alva Regional Airport 24 29 10 34/3 29.87 KAVK 262235Z AUTO 20024G29KT 10SM CLR 34/03 A2987 RMK AO2
YZP CYZP Sandspit, CA Sandspit Airport 24 29 1.5 12/11 29.27 CYZP 262244Z AUTO 13024G29KT 1 1/2SM +RA BR BKN006 OVC160 12/11 A2927 RMK PRESFR SLP914 DENSITY ALT 400FT
JCI KIXD Olathe, US New Century Aircenter Airport 23 29 10 32/10 29.84 KIXD 262153Z 20023G29KT 10SM CLR 33/10 A2984 RMK AO2 PK WND 19031/2101 SLP096 T03280100
KAAO Wichita, US Colonel James Jabara Airport 23 37 10 33/6 29.85 KAAO 262154Z AUTO 20023G37KT 10SM CLR 34/07 A2985 RMK AO2 PK WND 19037/2147 SLP094 T03390067
GBD KGBD Great Bend, US Great Bend Municipal Airport 23 29 10 34/4 29.81 KGBD 262156Z AUTO 19023G29KT 10SM CLR 34/04 A2981 RMK AO2 PK WND 21032/2101 SLP074 T03440044
TSE UACC Astana, KZ Astana International Airport 23 6.21 5/-6 29.82 UACC 262230Z 09012MPS 9999 FEW046CB 05/M06 Q1010 R04/0///70 NOSIG RMK QFE727/0969
KEKS Ennis, US Ennis Big Sky Airport 23 10 28/-4 29.95 KEKS 262235Z AUTO 18023KT 10SM CLR 28/M04 A2995 RMK AO2
SZL KSZL Knob Noster, US Whiteman Air Force Base 22 26 10 31/12 29.82 KSZL 262156Z 20022G26KT 10SM CLR 31/12 A2982 RMK AO2A PK WND 20029/44 SLP095 T03130121 $
ADK PADK Adak Island, US Adak Airport 22 27 6 10/8 29.64 PADK 262156Z AUTO 11022G27KT 6SM -RA BR OVC018 10/08 A2964 RMK AO2 PK WND 11035/2142 PRESFR SLP038 P0000 T01000083
K1FM 22 31 10 27/-2 29.80 K1FM 262158Z AUTO 25022G31KT 10SM CLR 27/M03 A2980 RMK AO2 PK WND 26035/04 SLP055 T02741029 $
K1GM 22 30 10 27/-2 29.79 K1GM 262158Z AUTO 25022G30KT 10SM CLR 27/M03 A2979 RMK AO2 PK WND 26030/51 SLP050 T02711028 $
CWBV 22 19/18 CWBV 262200Z AUTO 17022KT 19/19 RMK AO1 PK WND 17028/2133 T01910188
CXDB 22 23/0 CXDB 262200Z AUTO 24022KT 24/00 RMK AO1 PK WND 26033/2123 T02360000
CXRB 22 27 -1/-2 CXRB 262200Z AUTO 11022G27KT M02/M03 RMK AO1 SOG 01 8008 PK WND 11027/2156 SLP172 T10171029